createdAt,value
2018-08-16T00:00:28.305Z,17.60
2018-08-16T00:02:56.787Z,17.50
2018-08-16T00:05:25.817Z,17.50
2018-08-16T00:07:55.386Z,17.40
2018-08-16T00:10:23.967Z,17.40
2018-08-16T00:12:52.732Z,17.40
2018-08-16T00:15:22.118Z,17.30
2018-08-16T00:17:50.871Z,17.30
2018-08-16T00:20:19.378Z,17.20
2018-08-16T00:22:48.126Z,17.20
2018-08-16T00:25:17.314Z,17.10
2018-08-16T00:27:45.803Z,17.10
2018-08-16T00:30:17.863Z,17.10
2018-08-16T00:32:46.548Z,17.00
2018-08-16T00:35:15.258Z,17.00
2018-08-16T00:37:43.779Z,17.00
2018-08-16T00:40:14.143Z,16.90
2018-08-16T00:42:42.655Z,16.80
2018-08-16T00:45:11.570Z,16.80
2018-08-16T00:47:40.182Z,16.80
2018-08-16T00:50:10.119Z,16.70
2018-08-16T00:52:38.580Z,16.70
2018-08-16T00:55:08.037Z,16.70
2018-08-16T00:57:36.830Z,16.70
2018-08-16T01:00:06.619Z,16.60
2018-08-16T01:02:35.091Z,16.60
2018-08-16T01:05:03.609Z,16.60
2018-08-16T01:07:32.062Z,16.60
2018-08-16T01:10:00.570Z,16.50
2018-08-16T01:12:29.046Z,16.50
2018-08-16T01:14:57.555Z,16.50
2018-08-16T01:17:25.993Z,16.40
2018-08-16T01:19:54.434Z,16.50
2018-08-16T01:22:22.866Z,16.50
2018-08-16T01:24:51.361Z,16.40
2018-08-16T01:27:19.802Z,16.40
2018-08-16T01:29:48.274Z,16.50
2018-08-16T01:32:16.716Z,16.60
2018-08-16T01:34:45.179Z,16.70
2018-08-16T01:37:14.272Z,16.60
2018-08-16T01:39:42.674Z,16.60
2018-08-16T01:42:11.171Z,16.60
2018-08-16T01:44:39.590Z,16.60
2018-08-16T01:47:08.165Z,16.70
2018-08-16T01:49:37.686Z,16.60
2018-08-16T01:52:06.279Z,16.60
2018-08-16T01:54:34.774Z,16.50
2018-08-16T01:57:03.681Z,16.40
2018-08-16T01:59:32.130Z,16.30
2018-08-16T02:02:00.635Z,16.20
2018-08-16T02:04:29.064Z,16.20
2018-08-16T02:06:57.540Z,16.10
2018-08-16T02:09:25.991Z,16.10
2018-08-16T02:11:54.464Z,16.00
2018-08-16T02:14:22.911Z,16.00
2018-08-16T02:16:51.773Z,16.00
2018-08-16T02:19:20.358Z,15.90
2018-08-16T02:21:48.822Z,15.90
2018-08-16T02:24:17.298Z,15.90
2018-08-16T02:26:45.836Z,15.90
2018-08-16T02:29:14.347Z,15.90
2018-08-16T02:31:42.862Z,15.90
2018-08-16T02:34:11.322Z,15.90
2018-08-16T02:36:39.848Z,15.90
2018-08-16T02:39:09.471Z,15.90
2018-08-16T02:41:38.707Z,15.90
2018-08-16T02:44:07.638Z,16.00
2018-08-16T02:46:36.197Z,16.10
2018-08-16T02:49:04.596Z,16.10
2018-08-16T02:51:33.059Z,16.10
2018-08-16T02:54:01.591Z,16.10
2018-08-16T02:56:30.078Z,16.00
2018-08-16T02:58:58.558Z,15.90
2018-08-16T03:01:26.995Z,15.80
2018-08-16T03:03:55.482Z,15.70
2018-08-16T03:06:23.904Z,15.70
2018-08-16T03:08:52.437Z,15.70
2018-08-16T03:11:20.926Z,15.70
2018-08-16T03:13:49.366Z,15.70
2018-08-16T03:16:17.913Z,15.60
2018-08-16T03:18:46.349Z,15.60
2018-08-16T03:21:14.887Z,15.60
2018-08-16T03:23:43.411Z,15.50
2018-08-16T03:26:11.823Z,15.50
2018-08-16T03:28:40.249Z,15.40
2018-08-16T03:31:08.679Z,15.40
2018-08-16T03:33:37.698Z,15.40
2018-08-16T03:36:06.238Z,15.40
2018-08-16T03:38:34.689Z,15.30
2018-08-16T03:41:03.191Z,15.40
2018-08-16T03:43:31.683Z,15.50
2018-08-16T03:46:00.207Z,15.50
2018-08-16T03:48:29.484Z,15.50
2018-08-16T03:50:57.894Z,15.40
2018-08-16T03:53:26.417Z,15.40
2018-08-16T03:55:54.855Z,15.30
2018-08-16T03:58:23.492Z,15.30
2018-08-16T04:00:51.914Z,15.30
2018-08-16T04:03:20.459Z,15.20
2018-08-16T04:05:48.898Z,15.20
2018-08-16T04:08:17.358Z,15.20
2018-08-16T04:10:45.867Z,15.20
2018-08-16T04:13:14.326Z,15.20
2018-08-16T04:15:42.779Z,15.20
2018-08-16T04:18:11.210Z,15.20
2018-08-16T04:20:39.683Z,15.30
2018-08-16T04:23:08.109Z,15.30
2018-08-16T04:25:36.624Z,15.30
2018-08-16T04:28:05.382Z,15.30
2018-08-16T04:30:33.945Z,15.30
2018-08-16T04:33:03.807Z,15.30
2018-08-16T04:35:32.340Z,15.30
2018-08-16T04:38:00.835Z,15.20
2018-08-16T04:40:29.342Z,15.30
2018-08-16T04:42:57.755Z,15.30
2018-08-16T04:45:26.255Z,15.40
2018-08-16T04:47:54.658Z,15.40
2018-08-16T04:50:23.139Z,15.30
2018-08-16T04:52:51.674Z,15.30
2018-08-16T04:55:20.203Z,15.30
2018-08-16T04:57:48.639Z,15.40
2018-08-16T05:00:17.343Z,15.40
2018-08-16T05:02:45.802Z,15.50
2018-08-16T05:05:14.265Z,15.50
2018-08-16T05:07:42.768Z,15.60
2018-08-16T05:10:11.595Z,15.70
2018-08-16T05:12:40.002Z,15.80
2018-08-16T05:15:10.726Z,15.80
2018-08-16T05:17:39.167Z,15.80
2018-08-16T05:20:09.738Z,15.80
2018-08-16T05:22:38.251Z,15.80
2018-08-16T05:25:06.725Z,15.80
2018-08-16T05:27:35.210Z,15.80
2018-08-16T05:30:05.439Z,15.90
2018-08-16T05:32:33.961Z,15.90
2018-08-16T05:35:02.479Z,16.00
2018-08-16T05:37:31.070Z,16.00
2018-08-16T05:39:59.594Z,16.20
2018-08-16T05:42:28.067Z,16.40
2018-08-16T05:44:56.522Z,16.50
2018-08-16T05:47:24.950Z,16.80
2018-08-16T05:49:53.395Z,17.00
2018-08-16T05:52:21.856Z,17.10
2018-08-16T05:54:50.299Z,17.30
2018-08-16T05:57:18.758Z,17.30
2018-08-16T05:59:47.446Z,17.30
2018-08-16T06:02:15.903Z,17.40
2018-08-16T06:04:44.737Z,17.40
2018-08-16T06:07:14.054Z,17.40
2018-08-16T06:09:42.561Z,17.50
2018-08-16T06:12:11.065Z,17.50
2018-08-16T06:14:39.635Z,17.60
2018-08-16T06:17:08.183Z,17.70
2018-08-16T06:19:36.726Z,17.80
2018-08-16T06:22:05.207Z,17.90
2018-08-16T06:24:33.634Z,18.00
2018-08-16T06:27:02.154Z,18.10
2018-08-16T06:29:30.633Z,18.20
2018-08-16T06:31:59.049Z,18.30
2018-08-16T06:34:27.558Z,18.40
2018-08-16T06:36:56.034Z,18.50
2018-08-16T06:39:24.641Z,18.70
2018-08-16T06:41:53.086Z,18.70
2018-08-16T06:44:21.615Z,18.80
2018-08-16T06:46:50.059Z,18.80
2018-08-16T06:49:19.151Z,19.00
2018-08-16T06:51:47.694Z,19.00
2018-08-16T06:54:16.193Z,19.10
2018-08-16T06:56:44.727Z,19.20
2018-08-16T06:59:13.362Z,19.30
2018-08-16T07:01:41.917Z,19.40
2018-08-16T07:04:10.368Z,19.40
2018-08-16T07:06:38.861Z,19.50
2018-08-16T07:09:08.854Z,19.60
2018-08-16T07:11:37.382Z,19.70
2018-08-16T07:14:05.905Z,19.70
2018-08-16T07:16:34.361Z,19.90
2018-08-16T07:19:02.964Z,19.90
2018-08-16T07:21:31.543Z,20.00
2018-08-16T07:24:00.105Z,20.20
2018-08-16T07:26:29.076Z,20.30
2018-08-16T07:28:57.627Z,20.40
2018-08-16T07:31:26.086Z,20.40
2018-08-16T07:33:54.774Z,20.50
2018-08-16T07:36:23.330Z,20.70
2018-08-16T07:38:51.810Z,20.80
2018-08-16T07:41:20.398Z,21.00
2018-08-16T07:43:49.244Z,21.10
2018-08-16T07:46:17.822Z,21.30
2018-08-16T07:48:46.276Z,21.50
2018-08-16T07:51:14.876Z,21.80
2018-08-16T07:53:43.335Z,21.80
2018-08-16T07:56:12.034Z,22.10
2018-08-16T07:58:40.531Z,22.40
2018-08-16T08:01:10.509Z,22.60
2018-08-16T08:03:39.235Z,22.70
2018-08-16T08:06:07.844Z,23.00
2018-08-16T08:08:36.275Z,23.30
2018-08-16T08:11:04.763Z,23.50
2018-08-16T08:13:33.277Z,23.70
2018-08-16T08:16:01.866Z,24.00
2018-08-16T08:18:30.376Z,24.60
2018-08-16T08:20:58.994Z,25.00
2018-08-16T08:23:27.895Z,25.40
2018-08-16T08:25:56.360Z,25.60
2018-08-16T08:28:24.844Z,25.90
2018-08-16T08:30:53.471Z,26.00
2018-08-16T08:33:22.668Z,26.00
2018-08-16T08:36:02.748Z,26.20
2018-08-16T08:38:31.322Z,26.30
2018-08-16T08:40:59.732Z,26.50
2018-08-16T08:43:39.507Z,26.60
2018-08-16T08:46:08.363Z,26.70
2018-08-16T08:48:36.814Z,26.60
2018-08-16T08:51:05.491Z,26.70
2018-08-16T08:54:47.864Z,26.50
2018-08-16T08:57:27.759Z,26.50
2018-08-16T08:59:56.247Z,26.40
2018-08-16T09:02:24.769Z,26.40
2018-08-16T09:05:00.032Z,26.30
2018-08-16T09:07:28.603Z,26.10
2018-08-16T09:11:21.124Z,26.10
2018-08-16T09:14:04.167Z,26.30
2018-08-16T09:16:34.903Z,26.30
2018-08-16T09:19:03.898Z,26.40
2018-08-16T09:21:32.999Z,26.40
2018-08-16T09:24:01.586Z,26.20
2018-08-16T09:26:35.349Z,26.40
2018-08-16T09:29:16.608Z,26.40
2018-08-16T09:31:56.240Z,26.30
2018-08-16T09:34:25.883Z,26.40
2018-08-16T09:36:54.338Z,26.20
2018-08-16T09:39:23.012Z,26.60
2018-08-16T09:41:51.587Z,26.80
2018-08-16T09:44:20.021Z,27.10
2018-08-16T09:47:05.110Z,27.10
2018-08-16T09:49:36.291Z,27.00
2018-08-16T09:52:05.806Z,26.60
2018-08-16T09:54:34.360Z,26.70
2018-08-16T09:57:03.964Z,26.40
2018-08-16T09:59:32.493Z,26.40
2018-08-16T10:02:01.007Z,26.70
2018-08-16T10:04:31.636Z,27.00
2018-08-16T10:07:00.153Z,27.40
2018-08-16T10:09:29.804Z,27.50
2018-08-16T10:11:59.100Z,27.60
2018-08-16T10:14:27.558Z,27.50
2018-08-16T10:16:56.062Z,27.90
2018-08-16T10:19:25.259Z,27.80
2018-08-16T10:21:53.864Z,27.80
2018-08-16T10:24:22.399Z,27.70
2018-08-16T10:26:50.930Z,27.70
2018-08-16T10:29:19.343Z,27.60
2018-08-16T10:31:48.224Z,27.60
2018-08-16T10:34:17.144Z,27.90
2018-08-16T10:36:45.648Z,28.20
2018-08-16T10:39:15.796Z,28.00
2018-08-16T10:41:44.443Z,27.70
2018-08-16T10:44:13.486Z,27.30
2018-08-16T10:46:42.042Z,27.10
2018-08-16T10:49:10.570Z,27.00
2018-08-16T10:51:39.011Z,27.00
2018-08-16T10:54:07.639Z,27.10
2018-08-16T10:56:36.136Z,27.30
2018-08-16T10:59:05.192Z,27.40
2018-08-16T11:01:33.690Z,27.60
2018-08-16T11:04:02.369Z,27.90
2018-08-16T11:06:30.934Z,28.00
2018-08-16T11:08:59.358Z,28.10
2018-08-16T11:11:27.939Z,27.90
2018-08-16T11:13:56.378Z,27.90
2018-08-16T11:16:24.892Z,27.80
2018-08-16T11:18:53.572Z,27.80
2018-08-16T11:21:21.996Z,27.90
2018-08-16T11:23:50.407Z,27.90
2018-08-16T11:26:18.872Z,27.80
2018-08-16T11:28:47.332Z,27.80
2018-08-16T11:31:15.783Z,27.80
2018-08-16T11:33:44.223Z,27.60
2018-08-16T11:36:12.652Z,27.50
2018-08-16T11:38:41.093Z,27.50
2018-08-16T11:41:09.531Z,27.30
2018-08-16T11:43:37.973Z,27.30
2018-08-16T11:46:06.602Z,27.30
2018-08-16T11:48:35.071Z,27.30
2018-08-16T11:51:03.556Z,27.30
2018-08-16T11:53:32.003Z,27.30
2018-08-16T11:56:00.486Z,27.30
2018-08-16T11:58:28.985Z,27.30
2018-08-16T12:00:57.455Z,27.40
2018-08-16T12:03:25.965Z,27.50
2018-08-16T12:05:54.420Z,27.70
2018-08-16T12:08:22.896Z,27.70
2018-08-16T12:10:51.340Z,27.80
2018-08-16T12:13:19.817Z,27.80
2018-08-16T12:15:48.723Z,27.80
2018-08-16T12:18:17.151Z,27.90
2018-08-16T12:20:45.634Z,27.90
2018-08-16T12:23:14.061Z,27.90
2018-08-16T12:25:42.611Z,28.00
2018-08-16T12:28:11.133Z,28.00
2018-08-16T12:30:39.643Z,28.00
2018-08-16T12:33:08.101Z,28.10
2018-08-16T12:35:36.620Z,28.00
2018-08-16T12:38:05.121Z,28.00
2018-08-16T12:40:33.621Z,28.00
2018-08-16T12:43:02.078Z,28.10
2018-08-16T12:45:30.575Z,28.20
2018-08-16T12:47:59.164Z,28.20
2018-08-16T12:50:27.689Z,28.10
2018-08-16T12:52:56.171Z,28.10
2018-08-16T12:55:24.715Z,28.00
2018-08-16T12:57:53.215Z,28.00
2018-08-16T13:00:21.673Z,28.20
2018-08-16T13:02:50.235Z,28.20
2018-08-16T13:05:19.588Z,28.30
2018-08-16T13:07:48.251Z,28.30
2018-08-16T13:10:16.713Z,28.30
2018-08-16T13:12:45.456Z,28.30
2018-08-16T13:15:13.937Z,28.40
2018-08-16T13:17:42.397Z,28.50
2018-08-16T13:20:11.579Z,28.60
2018-08-16T13:22:40.189Z,28.60
2018-08-16T13:25:09.254Z,28.30
2018-08-16T13:27:37.877Z,28.40
2018-08-16T13:30:07.222Z,28.40
2018-08-16T13:32:35.961Z,28.50
2018-08-16T13:35:04.532Z,28.50
2018-08-16T13:37:33.230Z,28.50
2018-08-16T13:40:01.832Z,28.60
2018-08-16T13:42:31.167Z,28.50
2018-08-16T13:44:59.674Z,28.50
2018-08-16T13:47:28.187Z,28.60
2018-08-16T13:49:56.879Z,28.60
2018-08-16T13:52:25.324Z,28.60
2018-08-16T13:54:53.992Z,28.70
2018-08-16T13:57:22.529Z,28.80
2018-08-16T13:59:51.024Z,28.80
2018-08-16T14:02:19.510Z,29.10
2018-08-16T14:04:47.950Z,29.10
2018-08-16T14:07:16.443Z,29.20
2018-08-16T14:09:45.119Z,29.00
2018-08-16T14:12:13.723Z,29.10
2018-08-16T14:14:42.506Z,29.10
2018-08-16T14:17:11.001Z,29.10
2018-08-16T14:19:39.485Z,29.10
2018-08-16T14:22:08.057Z,29.10
2018-08-16T14:24:36.543Z,29.10
2018-08-16T14:27:05.316Z,29.10
2018-08-16T14:29:34.160Z,29.30
2018-08-16T14:32:02.874Z,29.30
2018-08-16T14:34:31.408Z,29.20
2018-08-16T14:36:59.963Z,29.30
2018-08-16T14:39:28.451Z,29.30
2018-08-16T14:41:57.020Z,29.30
2018-08-16T14:44:25.614Z,29.30
2018-08-16T14:46:54.150Z,29.20
2018-08-16T14:49:22.783Z,29.20
2018-08-16T14:51:51.270Z,29.10
2018-08-16T14:54:19.771Z,29.10
2018-08-16T14:56:48.219Z,29.10
2018-08-16T14:59:16.924Z,29.20
2018-08-16T15:01:45.396Z,29.30
2018-08-16T15:04:14.509Z,29.30
2018-08-16T15:06:42.976Z,29.50
2018-08-16T15:09:12.336Z,29.50
2018-08-16T15:11:41.046Z,29.50
2018-08-16T15:14:09.571Z,29.50
2018-08-16T15:16:38.298Z,29.40
2018-08-16T15:19:07.140Z,29.40
2018-08-16T15:21:35.748Z,29.40
2018-08-16T15:24:04.486Z,29.40
2018-08-16T15:26:33.047Z,29.30
2018-08-16T15:29:01.487Z,29.30
2018-08-16T15:31:29.966Z,29.20
2018-08-16T15:33:58.468Z,29.20
2018-08-16T15:36:26.961Z,29.20
2018-08-16T15:38:55.514Z,29.20
2018-08-16T15:41:23.981Z,29.20
2018-08-16T15:43:52.407Z,29.20
2018-08-16T15:46:20.849Z,29.20
2018-08-16T15:48:49.301Z,29.20
2018-08-16T15:51:17.772Z,29.20
2018-08-16T15:53:46.257Z,29.10
2018-08-16T15:56:14.813Z,29.20
2018-08-16T15:58:43.358Z,29.20
2018-08-16T16:01:12.176Z,29.20
2018-08-16T16:03:40.590Z,29.30
2018-08-16T16:06:09.162Z,29.30
2018-08-16T16:08:37.898Z,29.30
2018-08-16T16:11:06.526Z,29.20
2018-08-16T16:13:35.458Z,29.20
2018-08-16T16:16:03.969Z,29.20
2018-08-16T16:18:32.422Z,29.40
2018-08-16T16:21:00.949Z,29.30
2018-08-16T16:23:29.823Z,29.30
2018-08-16T16:25:58.652Z,29.30
2018-08-16T16:28:27.238Z,29.20
2018-08-16T16:30:56.045Z,29.20
2018-08-16T16:33:25.075Z,29.30
2018-08-16T16:35:53.560Z,29.20
2018-08-16T16:38:22.185Z,29.10
2018-08-16T16:40:50.830Z,29.10
2018-08-16T16:43:19.499Z,28.90
2018-08-16T16:45:48.030Z,28.90
2018-08-16T16:48:16.521Z,28.90
2018-08-16T16:50:45.061Z,29.00
2018-08-16T16:53:13.592Z,29.10
2018-08-16T16:55:42.083Z,29.10
2018-08-16T16:58:10.562Z,29.00
2018-08-16T17:00:39.232Z,28.90
2018-08-16T17:03:07.933Z,28.90
2018-08-16T17:05:36.564Z,28.80
2018-08-16T17:08:05.414Z,28.70
2018-08-16T17:10:39.679Z,28.70
2018-08-16T17:13:08.203Z,28.60
2018-08-16T17:15:36.753Z,28.60
2018-08-16T17:18:05.552Z,28.50
2018-08-16T17:20:34.248Z,28.50
2018-08-16T17:23:03.015Z,28.50
2018-08-16T17:25:31.738Z,28.40
2018-08-16T17:28:00.276Z,28.40
2018-08-16T17:30:28.819Z,28.30
2018-08-16T17:32:57.561Z,28.20
2018-08-16T17:35:26.077Z,28.20
2018-08-16T17:37:54.586Z,28.20
2018-08-16T17:40:23.132Z,28.20
2018-08-16T17:42:51.835Z,28.10
2018-08-16T17:45:20.359Z,28.00
2018-08-16T17:47:48.928Z,27.90
2018-08-16T17:50:17.470Z,27.90
2018-08-16T17:52:46.104Z,27.80
2018-08-16T17:55:14.634Z,27.70
2018-08-16T17:57:43.172Z,27.70
2018-08-16T18:00:12.524Z,27.50
2018-08-16T18:02:41.593Z,27.50
2018-08-16T18:05:10.248Z,27.40
2018-08-16T18:07:38.908Z,27.30
2018-08-16T18:10:08.713Z,27.10
2018-08-16T18:12:37.217Z,27.00
2018-08-16T18:15:08.388Z,27.00
2018-08-16T18:17:36.920Z,26.80
2018-08-16T18:20:06.289Z,26.70
2018-08-16T18:22:35.260Z,26.80
2018-08-16T18:25:04.089Z,26.70
2018-08-16T18:27:32.644Z,26.60
2018-08-16T18:30:01.733Z,26.60
2018-08-16T18:32:30.241Z,26.50
2018-08-16T18:34:59.136Z,26.40
2018-08-16T18:37:28.028Z,26.30
2018-08-16T18:39:57.198Z,26.30
2018-08-16T18:42:25.923Z,26.20
2018-08-16T18:44:55.035Z,26.10
2018-08-16T18:47:24.030Z,26.00
2018-08-16T18:49:52.955Z,26.00
2018-08-16T18:52:22.053Z,25.90
2018-08-16T18:54:50.649Z,25.90
2018-08-16T18:57:19.746Z,25.80
2018-08-16T18:59:49.765Z,25.70
2018-08-16T19:02:18.583Z,25.60
2018-08-16T19:04:47.273Z,25.50
2018-08-16T19:07:15.782Z,25.40
2018-08-16T19:09:44.485Z,25.30
2018-08-16T19:12:13.090Z,25.30
2018-08-16T19:14:41.685Z,25.20
2018-08-16T19:17:10.268Z,25.00
2018-08-16T19:19:39.170Z,25.00
2018-08-16T19:22:07.794Z,24.80
2018-08-16T19:24:36.276Z,24.70
2018-08-16T19:27:06.564Z,24.70
2018-08-16T19:29:35.293Z,24.60
2018-08-16T19:32:03.844Z,24.50
2018-08-16T19:34:32.758Z,24.40
2018-08-16T19:37:01.900Z,24.40
2018-08-16T19:39:30.556Z,24.30
2018-08-16T19:41:59.190Z,24.20
2018-08-16T19:44:27.861Z,24.10
2018-08-16T19:46:56.539Z,24.00
2018-08-16T19:49:25.129Z,24.00
2018-08-16T19:51:53.799Z,23.80
2018-08-16T19:54:22.454Z,23.80
2018-08-16T19:56:51.825Z,23.80
2018-08-16T19:59:20.426Z,23.70
2018-08-16T20:01:48.888Z,23.60
2018-08-16T20:04:17.448Z,23.60
2018-08-16T20:06:46.171Z,23.50
2018-08-16T20:09:14.779Z,23.40
2018-08-16T20:11:43.262Z,23.40
2018-08-16T20:14:11.927Z,23.30
2018-08-16T20:16:40.703Z,23.30
2018-08-16T20:19:10.302Z,23.20
2018-08-16T20:21:38.838Z,23.10
2018-08-16T20:24:07.402Z,23.10
2018-08-16T20:26:35.877Z,23.00
2018-08-16T20:29:04.463Z,22.90
2018-08-16T20:31:32.943Z,22.80
2018-08-16T20:34:01.393Z,22.70
2018-08-16T20:36:29.963Z,22.60
2018-08-16T20:38:58.621Z,22.60
2018-08-16T20:41:27.177Z,22.70
2018-08-16T20:43:56.186Z,22.60
2018-08-16T20:46:24.998Z,22.60
2018-08-16T20:48:53.583Z,22.50
2018-08-16T20:51:22.665Z,22.50
2018-08-16T20:53:51.150Z,22.50
2018-08-16T20:56:20.293Z,22.50
2018-08-16T20:58:48.707Z,22.40
2018-08-16T21:01:17.572Z,22.40
2018-08-16T21:03:46.015Z,22.40
2018-08-16T21:06:14.800Z,22.30
2018-08-16T21:08:43.487Z,22.30
2018-08-16T21:11:11.971Z,22.20
2018-08-16T21:13:40.413Z,22.10
2018-08-16T21:16:08.893Z,22.10
2018-08-16T21:18:37.317Z,22.00
2018-08-16T21:21:06.499Z,22.00
2018-08-16T21:23:34.965Z,21.90
2018-08-16T21:26:03.445Z,21.90
2018-08-16T21:28:31.910Z,21.90
2018-08-16T21:33:35.505Z,21.90
2018-08-16T21:36:03.987Z,21.90
2018-08-16T21:38:32.515Z,21.80
2018-08-16T21:41:00.994Z,21.80
2018-08-16T21:43:29.834Z,21.80
2018-08-16T21:45:58.303Z,21.80
2018-08-16T21:48:27.031Z,21.80
2018-08-16T21:50:55.881Z,21.80
2018-08-16T21:53:24.314Z,21.70
2018-08-16T21:55:52.731Z,21.70
2018-08-16T21:58:21.125Z,21.60
2018-08-16T22:00:52.776Z,21.60
2018-08-16T22:03:22.803Z,21.60
2018-08-16T22:06:01.419Z,21.60
2018-08-16T22:08:40.189Z,21.50
2018-08-16T22:11:09.501Z,21.50
2018-08-16T22:13:38.969Z,21.50
2018-08-16T22:16:08.346Z,21.50
2018-08-16T22:18:37.411Z,21.50
2018-08-16T22:21:06.035Z,21.50
2018-08-16T22:23:34.504Z,21.40
2018-08-16T22:26:03.025Z,21.30
2018-08-16T22:28:31.465Z,21.30
2018-08-16T22:31:00.460Z,21.30
2018-08-16T22:33:29.284Z,21.30
2018-08-16T22:35:58.268Z,21.20
2018-08-16T22:38:26.700Z,21.20
2018-08-16T22:40:55.187Z,21.20
2018-08-16T22:43:23.932Z,21.10
2018-08-16T22:45:52.742Z,21.00
2018-08-16T22:48:21.158Z,20.90
2018-08-16T22:50:49.680Z,20.90
2018-08-16T22:53:18.938Z,20.90
2018-08-16T22:55:47.545Z,20.90
2018-08-16T22:58:16.770Z,20.90
2018-08-16T23:00:45.790Z,20.80
2018-08-16T23:03:14.888Z,20.90
2018-08-16T23:05:43.328Z,20.90
2018-08-16T23:08:12.064Z,20.90
2018-08-16T23:10:41.049Z,20.90
2018-08-16T23:13:09.680Z,20.80
2018-08-16T23:15:38.283Z,20.80
2018-08-16T23:18:07.923Z,20.80
2018-08-16T23:20:36.361Z,20.80
2018-08-16T23:23:05.459Z,20.70
2018-08-16T23:25:34.746Z,20.70
2018-08-16T23:28:03.533Z,20.70
2018-08-16T23:30:32.103Z,20.60
2018-08-16T23:33:00.518Z,20.70
2018-08-16T23:35:29.194Z,20.70
2018-08-16T23:37:57.619Z,20.60
2018-08-16T23:40:26.081Z,20.60
2018-08-16T23:42:54.599Z,20.60
2018-08-16T23:45:23.044Z,20.50
2018-08-16T23:48:03.121Z,20.50
2018-08-16T23:50:32.026Z,20.40
2018-08-16T23:53:00.496Z,20.40
2018-08-16T23:55:29.168Z,20.30
2018-08-16T23:57:57.823Z,20.30
